North Island Naval Air Station-Halsey Field
KNZY : now visible

Airfield :











YOU CAN JOIN US ON...

 
LOGIN :

Register | Disclaimer

   EN    FR    IT 

 









Legend :    VFR   Marginal VFR   IFR   Intensive IFR   Very Intensive IFR
Visi :
Ceiling :
>= 8 km
>= 3000ft
5 to 8 km
1000 to 3000 ft
1500m to 5 km
500 to 1000 ft
800 to 1500m
200 to 500 ft
< 800m
< 200 ft
Symbols :   Thunderstorms  Fog  Heavy snow  Heavy precipitations  Wind > 20 kt






- Airport Elevation : 26 ft


KNZY - North Island Naval Air Station-Halsey Field

CURRENT METAR :
  • 262359Z 28008KT 10SM BKN023 15/09 A3012 RMK AO2 T01500094 $

EXPIRED METARs :
  • 262252Z 21004KT 10SM SCT022 BKN060 15/09 A3011 RMK AO2 SLP194 T01500094 $
  • 262152Z 24006KT 10SM BKN022 16/10 A3013 RMK AO2 SLP201 T01560100 $

TAF TAF KNZY
Valid from the 26 at 23:00 until the 27 at 23:00 UTC


2623/2723 VRB06KT 9999 SCT012 SCT180 550009 550909 531809 QNH3002INS
TEMPO 2623/2705 6000 BR BKN012 BKN150
FM270500 VRB06KT 4800 BR SCT004 OVC012 550009 530909 531809 QNH3005INS
TEMPO 2705/2711 0400 FG OVC003
FM271100 VRB06KT 6000 BR SCT005 OVC011 550009 530909 531809 QNH3003INS
TEMPO 2711/2717 0400 FG VV002
BECMG 2717/2719 31009KT 9999 FEW012 FEW050 SCT150 550009 550909 531809 QNH3004INS
TEMPO 2719/2723 VRB06KT 4800 BR BKN012 BKN050 OVC150 T11/2715Z T17/2721Z FS30118



MET'MAP, your aeronautical weather chart ! - Copyright ORBIFLY December 2007 - Disclaimer

ORBIFLY MET'MAP TEAM :

Programming & Development : Alexandra Zaïnal
Concept & original design : Baudouin d'Aumeries
Assistance for programming : Marc-Olivier Méhu
Technical & hardware support : Manuel Goepfert

Contact : metmap@orbifly.com




SOURCES & CREDITS :

   NOAA       Earth
Advisory